sensor_id;sensor_type;location;lat;lon;timestamp;P1;durP1;ratioP1;P2;durP2;ratioP2
38779;SDS011;29273;49.962;9.768;2022-10-19T00:00:41;0.80;;;0.80;;
38779;SDS011;29273;49.962;9.768;2022-10-19T00:03:07;1.23;;;0.70;;
38779;SDS011;29273;49.962;9.768;2022-10-19T00:05:32;1.02;;;0.93;;
38779;SDS011;29273;49.962;9.768;2022-10-19T00:07:58;2.28;;;1.00;;
38779;SDS011;29273;49.962;9.768;2022-10-19T00:10:26;1.33;;;1.00;;
38779;SDS011;29273;49.962;9.768;2022-10-19T00:12:51;2.45;;;1.00;;
38779;SDS011;29273;49.962;9.768;2022-10-19T00:15:17;7.57;;;2.80;;
38779;SDS011;29273;49.962;9.768;2022-10-19T00:17:43;12.52;;;4.20;;
38779;SDS011;29273;49.962;9.768;2022-10-19T00:20:09;12.55;;;4.18;;
38779;SDS011;29273;49.962;9.768;2022-10-19T00:22:35;9.07;;;3.75;;
38779;SDS011;29273;49.962;9.768;2022-10-19T00:25:00;14.40;;;4.47;;
38779;SDS011;29273;49.962;9.768;2022-10-19T00:27:25;12.15;;;3.70;;
38779;SDS011;29273;49.962;9.768;2022-10-19T00:29:51;18.45;;;5.47;;
38779;SDS011;29273;49.962;9.768;2022-10-19T00:32:17;21.23;;;5.50;;
38779;SDS011;29273;49.962;9.768;2022-10-19T00:34:42;13.18;;;3.95;;
38779;SDS011;29273;49.962;9.768;2022-10-19T00:37:08;7.53;;;2.88;;
38779;SDS011;29273;49.962;9.768;2022-10-19T00:39:33;4.72;;;2.53;;
38779;SDS011;29273;49.962;9.768;2022-10-19T00:41:59;3.30;;;1.98;;
38779;SDS011;29273;49.962;9.768;2022-10-19T00:46:53;2.85;;;2.10;;
38779;SDS011;29273;49.962;9.768;2022-10-19T00:49:23;3.88;;;1.70;;
38779;SDS011;29273;49.962;9.768;2022-10-19T00:51:53;2.90;;;1.75;;
38779;SDS011;29273;49.962;9.768;2022-10-19T00:54:22;3.25;;;1.75;;
38779;SDS011;29273;49.962;9.768;2022-10-19T00:56:49;1.98;;;1.40;;
38779;SDS011;29273;49.962;9.768;2022-10-19T00:59:18;3.80;;;1.77;;
38779;SDS011;29273;49.962;9.768;2022-10-19T01:01:46;2.35;;;1.80;;
38779;SDS011;29273;49.962;9.768;2022-10-19T01:04:13;3.85;;;1.73;;
38779;SDS011;29273;49.962;9.768;2022-10-19T01:06:40;1.55;;;1.30;;
38779;SDS011;29273;49.962;9.768;2022-10-19T01:09:06;2.03;;;1.27;;
38779;SDS011;29273;49.962;9.768;2022-10-19T01:11:53;0.93;;;0.80;;
38779;SDS011;29273;49.962;9.768;2022-10-19T01:23:29;1.10;;;1.00;;
38779;SDS011;29273;49.962;9.768;2022-10-19T01:28:54;1.30;;;1.10;;
38779;SDS011;29273;49.962;9.768;2022-10-19T01:31:44;1.05;;;0.95;;
38779;SDS011;29273;49.962;9.768;2022-10-19T01:34:18;1.60;;;1.25;;
38779;SDS011;29273;49.962;9.768;2022-10-19T01:39:16;1.30;;;1.15;;
38779;SDS011;29273;49.962;9.768;2022-10-19T01:44:17;1.00;;;0.90;;
38779;SDS011;29273;49.962;9.768;2022-10-19T01:46:54;1.15;;;1.05;;
38779;SDS011;29273;49.962;9.768;2022-10-19T01:52:08;0.88;;;0.77;;
38779;SDS011;29273;49.962;9.768;2022-10-19T01:54:38;1.05;;;0.95;;
38779;SDS011;29273;49.962;9.768;2022-10-19T01:57:08;1.00;;;0.90;;
38779;SDS011;29273;49.962;9.768;2022-10-19T01:59:37;1.38;;;1.20;;
38779;SDS011;29273;49.962;9.768;2022-10-19T02:02:04;4.75;;;1.75;;
38779;SDS011;29273;49.962;9.768;2022-10-19T02:04:31;7.53;;;2.35;;
38779;SDS011;29273;49.962;9.768;2022-10-19T02:06:58;3.35;;;1.60;;
38779;SDS011;29273;49.962;9.768;2022-10-19T02:09:25;3.08;;;1.77;;
38779;SDS011;29273;49.962;9.768;2022-10-19T02:11:55;2.63;;;1.30;;
38779;SDS011;29273;49.962;9.768;2022-10-19T02:14:25;3.00;;;1.50;;
38779;SDS011;29273;49.962;9.768;2022-10-19T02:16:58;1.50;;;1.40;;
38779;SDS011;29273;49.962;9.768;2022-10-19T02:19:33;2.58;;;1.25;;
38779;SDS011;29273;49.962;9.768;2022-10-19T02:21:59;1.10;;;0.93;;
38779;SDS011;29273;49.962;9.768;2022-10-19T02:24:25;1.30;;;1.13;;
38779;SDS011;29273;49.962;9.768;2022-10-19T02:26:50;1.58;;;1.35;;
38779;SDS011;29273;49.962;9.768;2022-10-19T02:29:16;1.10;;;1.00;;
38779;SDS011;29273;49.962;9.768;2022-10-19T02:31:42;2.40;;;0.95;;
38779;SDS011;29273;49.962;9.768;2022-10-19T02:34:08;1.40;;;1.30;;
38779;SDS011;29273;49.962;9.768;2022-10-19T02:36:34;1.63;;;1.30;;
38779;SDS011;29273;49.962;9.768;2022-10-19T02:39:00;1.10;;;1.00;;
38779;SDS011;29273;49.962;9.768;2022-10-19T02:43:58;1.45;;;1.00;;
38779;SDS011;29273;49.962;9.768;2022-10-19T02:46:39;1.33;;;1.00;;
38779;SDS011;29273;49.962;9.768;2022-10-19T02:49:09;0.70;;;0.70;;
38779;SDS011;29273;49.962;9.768;2022-10-19T02:51:37;0.93;;;0.85;;
38779;SDS011;29273;49.962;9.768;2022-10-19T02:54:05;0.80;;;0.80;;
38779;SDS011;29273;49.962;9.768;2022-10-19T02:56:32;1.35;;;0.80;;
38779;SDS011;29273;49.962;9.768;2022-10-19T02:58:58;0.50;;;0.50;;
38779;SDS011;29273;49.962;9.768;2022-10-19T03:01:24;0.65;;;0.65;;
38779;SDS011;29273;49.962;9.768;2022-10-19T03:03:50;1.20;;;0.70;;
38779;SDS011;29273;49.962;9.768;2022-10-19T03:06:15;1.35;;;0.52;;
38779;SDS011;29273;49.962;9.768;2022-10-19T03:08:41;0.88;;;0.65;;
38779;SDS011;29273;49.962;9.768;2022-10-19T03:11:06;0.50;;;0.50;;
38779;SDS011;29273;49.962;9.768;2022-10-19T03:13:32;2.40;;;2.20;;
38779;SDS011;29273;49.962;9.768;2022-10-19T03:16:04;2.20;;;2.00;;
38779;SDS011;29273;49.962;9.768;2022-10-19T03:18:30;5.30;;;4.15;;
38779;SDS011;29273;49.962;9.768;2022-10-19T03:21:03;4.13;;;3.72;;
38779;SDS011;29273;49.962;9.768;2022-10-19T03:23:36;2.88;;;2.22;;
38779;SDS011;29273;49.962;9.768;2022-10-19T03:26:03;2.00;;;1.80;;
38779;SDS011;29273;49.962;9.768;2022-10-19T03:28:29;1.17;;;1.08;;
38779;SDS011;29273;49.962;9.768;2022-10-19T03:30:55;0.80;;;0.80;;
38779;SDS011;29273;49.962;9.768;2022-10-19T03:33:20;1.02;;;0.93;;
38779;SDS011;29273;49.962;9.768;2022-10-19T03:35:46;0.68;;;0.68;;
38779;SDS011;29273;49.962;9.768;2022-10-19T03:38:12;0.75;;;0.75;;
38779;SDS011;29273;49.962;9.768;2022-10-19T03:40:37;1.00;;;0.90;;
38779;SDS011;29273;49.962;9.768;2022-10-19T03:43:03;2.28;;;1.08;;
38779;SDS011;29273;49.962;9.768;2022-10-19T03:45:29;2.75;;;1.05;;
38779;SDS011;29273;49.962;9.768;2022-10-19T03:47:54;2.20;;;1.13;;
38779;SDS011;29273;49.962;9.768;2022-10-19T03:50:20;1.17;;;1.08;;
38779;SDS011;29273;49.962;9.768;2022-10-19T03:52:45;1.00;;;0.90;;
38779;SDS011;29273;49.962;9.768;2022-10-19T03:55:13;1.55;;;0.85;;
38779;SDS011;29273;49.962;9.768;2022-10-19T03:57:40;2.70;;;1.00;;
38779;SDS011;29273;49.962;9.768;2022-10-19T04:00:06;3.17;;;1.02;;
38779;SDS011;29273;49.962;9.768;2022-10-19T04:02:37;1.05;;;0.80;;
38779;SDS011;29273;49.962;9.768;2022-10-19T04:05:02;0.65;;;0.65;;
38779;SDS011;29273;49.962;9.768;2022-10-19T04:07:28;0.57;;;0.57;;
38779;SDS011;29273;49.962;9.768;2022-10-19T04:09:54;0.63;;;0.63;;
38779;SDS011;29273;49.962;9.768;2022-10-19T04:12:19;0.63;;;0.63;;
38779;SDS011;29273;49.962;9.768;2022-10-19T04:14:45;0.60;;;0.60;;
38779;SDS011;29273;49.962;9.768;2022-10-19T04:17:10;0.47;;;0.47;;
38779;SDS011;29273;49.962;9.768;2022-10-19T04:19:35;0.88;;;0.70;;
38779;SDS011;29273;49.962;9.768;2022-10-19T04:22:01;0.50;;;0.50;;
38779;SDS011;29273;49.962;9.768;2022-10-19T04:24:26;0.52;;;0.52;;
38779;SDS011;29273;49.962;9.768;2022-10-19T04:26:53;0.77;;;0.70;;
38779;SDS011;29273;49.962;9.768;2022-10-19T04:29:20;0.68;;;0.68;;
38779;SDS011;29273;49.962;9.768;2022-10-19T04:31:48;0.70;;;0.70;;
38779;SDS011;29273;49.962;9.768;2022-10-19T04:34:14;2.42;;;0.90;;
38779;SDS011;29273;49.962;9.768;2022-10-19T04:36:41;3.72;;;1.10;;
38779;SDS011;29273;49.962;9.768;2022-10-19T04:39:06;2.20;;;1.20;;
38779;SDS011;29273;49.962;9.768;2022-10-19T04:41:32;1.58;;;0.90;;
38779;SDS011;29273;49.962;9.768;2022-10-19T04:43:59;1.15;;;0.90;;
38779;SDS011;29273;49.962;9.768;2022-10-19T04:46:27;1.63;;;0.73;;
38779;SDS011;29273;49.962;9.768;2022-10-19T04:48:53;0.90;;;0.80;;
38779;SDS011;29273;49.962;9.768;2022-10-19T04:51:20;0.70;;;0.70;;
38779;SDS011;29273;49.962;9.768;2022-10-19T04:53:47;1.00;;;0.90;;
38779;SDS011;29273;49.962;9.768;2022-10-19T04:56:16;0.77;;;0.75;;
38779;SDS011;29273;49.962;9.768;2022-10-19T04:58:46;0.80;;;0.80;;
38779;SDS011;29273;49.962;9.768;2022-10-19T05:01:16;1.00;;;0.80;;
38779;SDS011;29273;49.962;9.768;2022-10-19T05:03:44;0.85;;;0.85;;
38779;SDS011;29273;49.962;9.768;2022-10-19T05:06:10;1.33;;;1.23;;
38779;SDS011;29273;49.962;9.768;2022-10-19T05:08:37;2.13;;;1.23;;
38779;SDS011;29273;49.962;9.768;2022-10-19T05:11:04;2.65;;;1.27;;
38779;SDS011;29273;49.962;9.768;2022-10-19T05:13:32;1.45;;;1.15;;
38779;SDS011;29273;49.962;9.768;2022-10-19T05:15:58;2.83;;;1.30;;
38779;SDS011;29273;49.962;9.768;2022-10-19T05:18:25;1.70;;;1.30;;
38779;SDS011;29273;49.962;9.768;2022-10-19T05:20:59;1.23;;;1.13;;
38779;SDS011;29273;49.962;9.768;2022-10-19T05:23:29;1.17;;;1.08;;
38779;SDS011;29273;49.962;9.768;2022-10-19T05:26:01;1.25;;;1.15;;
38779;SDS011;29273;49.962;9.768;2022-10-19T05:28:29;1.65;;;1.20;;
38779;SDS011;29273;49.962;9.768;2022-10-19T05:30:54;1.00;;;0.90;;
38779;SDS011;29273;49.962;9.768;2022-10-19T05:33:20;1.10;;;1.00;;
38779;SDS011;29273;49.962;9.768;2022-10-19T05:35:46;1.67;;;1.25;;
38779;SDS011;29273;49.962;9.768;2022-10-19T05:38:11;1.20;;;1.10;;
38779;SDS011;29273;49.962;9.768;2022-10-19T05:40:37;1.65;;;1.23;;
38779;SDS011;29273;49.962;9.768;2022-10-19T05:43:02;1.27;;;1.17;;
38779;SDS011;29273;49.962;9.768;2022-10-19T05:45:27;1.85;;;1.50;;
38779;SDS011;29273;49.962;9.768;2022-10-19T05:47:53;3.38;;;1.50;;
38779;SDS011;29273;49.962;9.768;2022-10-19T05:50:18;1.83;;;1.40;;
38779;SDS011;29273;49.962;9.768;2022-10-19T05:52:44;1.60;;;1.40;;
38779;SDS011;29273;49.962;9.768;2022-10-19T05:55:09;3.08;;;1.48;;
38779;SDS011;29273;49.962;9.768;2022-10-19T05:57:35;2.58;;;1.38;;
38779;SDS011;29273;49.962;9.768;2022-10-19T06:00:01;1.70;;;1.45;;
38779;SDS011;29273;49.962;9.768;2022-10-19T06:02:37;3.38;;;1.90;;
38779;SDS011;29273;49.962;9.768;2022-10-19T06:05:02;2.05;;;1.65;;
38779;SDS011;29273;49.962;9.768;2022-10-19T06:07:28;3.03;;;1.92;;
38779;SDS011;29273;49.962;9.768;2022-10-19T06:09:53;5.25;;;2.10;;
38779;SDS011;29273;49.962;9.768;2022-10-19T06:12:19;2.50;;;2.10;;
38779;SDS011;29273;49.962;9.768;2022-10-19T06:14:44;3.70;;;1.90;;
38779;SDS011;29273;49.962;9.768;2022-10-19T06:17:10;3.58;;;2.35;;
38779;SDS011;29273;49.962;9.768;2022-10-19T06:19:36;1.80;;;1.70;;
38779;SDS011;29273;49.962;9.768;2022-10-19T06:22:01;2.45;;;1.83;;
38779;SDS011;29273;49.962;9.768;2022-10-19T06:24:27;2.92;;;1.83;;
38779;SDS011;29273;49.962;9.768;2022-10-19T06:26:52;2.13;;;1.92;;
38779;SDS011;29273;49.962;9.768;2022-10-19T06:29:18;2.08;;;1.80;;
38779;SDS011;29273;49.962;9.768;2022-10-19T06:31:43;3.75;;;2.30;;
38779;SDS011;29273;49.962;9.768;2022-10-19T06:34:10;3.47;;;2.38;;
38779;SDS011;29273;49.962;9.768;2022-10-19T06:36:36;3.40;;;2.30;;
38779;SDS011;29273;49.962;9.768;2022-10-19T06:39:02;2.75;;;2.22;;
38779;SDS011;29273;49.962;9.768;2022-10-19T06:41:28;3.13;;;2.50;;
38779;SDS011;29273;49.962;9.768;2022-10-19T06:44:04;3.38;;;2.88;;
38779;SDS011;29273;49.962;9.768;2022-10-19T06:46:29;3.17;;;2.70;;
38779;SDS011;29273;49.962;9.768;2022-10-19T06:48:57;2.97;;;2.58;;
38779;SDS011;29273;49.962;9.768;2022-10-19T06:51:25;3.22;;;2.65;;
38779;SDS011;29273;49.962;9.768;2022-10-19T06:53:52;3.13;;;2.40;;
38779;SDS011;29273;49.962;9.768;2022-10-19T06:56:18;3.05;;;2.65;;
38779;SDS011;29273;49.962;9.768;2022-10-19T06:58:44;2.72;;;2.33;;
38779;SDS011;29273;49.962;9.768;2022-10-19T07:01:10;3.45;;;2.20;;
38779;SDS011;29273;49.962;9.768;2022-10-19T07:03:38;4.07;;;2.67;;
38779;SDS011;29273;49.962;9.768;2022-10-19T07:06:05;3.28;;;2.53;;
38779;SDS011;29273;49.962;9.768;2022-10-19T07:08:33;3.00;;;2.70;;
38779;SDS011;29273;49.962;9.768;2022-10-19T07:11:01;3.70;;;2.92;;
38779;SDS011;29273;49.962;9.768;2022-10-19T07:13:28;4.18;;;2.90;;
38779;SDS011;29273;49.962;9.768;2022-10-19T07:15:58;5.13;;;3.38;;
38779;SDS011;29273;49.962;9.768;2022-10-19T07:18:26;3.65;;;2.90;;
38779;SDS011;29273;49.962;9.768;2022-10-19T07:20:58;3.92;;;3.03;;
38779;SDS011;29273;49.962;9.768;2022-10-19T07:23:26;4.65;;;2.85;;
38779;SDS011;29273;49.962;9.768;2022-10-19T07:25:53;3.50;;;3.10;;
38779;SDS011;29273;49.962;9.768;2022-10-19T07:28:24;5.10;;;3.60;;
38779;SDS011;29273;49.962;9.768;2022-10-19T07:30:50;4.47;;;3.20;;
38779;SDS011;29273;49.962;9.768;2022-10-19T07:33:15;3.78;;;3.35;;
38779;SDS011;29273;49.962;9.768;2022-10-19T07:35:41;5.35;;;4.10;;
38779;SDS011;29273;49.962;9.768;2022-10-19T07:38:06;5.00;;;3.72;;
38779;SDS011;29273;49.962;9.768;2022-10-19T07:40:32;4.55;;;3.50;;
38779;SDS011;29273;49.962;9.768;2022-10-19T07:42:58;4.70;;;3.58;;
38779;SDS011;29273;49.962;9.768;2022-10-19T07:45:23;5.97;;;3.85;;
38779;SDS011;29273;49.962;9.768;2022-10-19T07:47:49;6.18;;;4.38;;
38779;SDS011;29273;49.962;9.768;2022-10-19T07:50:14;5.32;;;3.70;;
38779;SDS011;29273;49.962;9.768;2022-10-19T07:52:40;5.57;;;4.22;;
38779;SDS011;29273;49.962;9.768;2022-10-19T07:55:05;5.63;;;4.30;;
38779;SDS011;29273;49.962;9.768;2022-10-19T07:57:31;5.65;;;4.25;;
38779;SDS011;29273;49.962;9.768;2022-10-19T07:59:57;7.03;;;4.70;;
38779;SDS011;29273;49.962;9.768;2022-10-19T08:02:22;5.95;;;4.30;;
38779;SDS011;29273;49.962;9.768;2022-10-19T08:04:48;6.07;;;4.82;;
38779;SDS011;29273;49.962;9.768;2022-10-19T08:07:13;6.40;;;4.13;;
38779;SDS011;29273;49.962;9.768;2022-10-19T08:09:39;6.97;;;4.50;;
38779;SDS011;29273;49.962;9.768;2022-10-19T08:12:04;6.25;;;4.53;;
38779;SDS011;29273;49.962;9.768;2022-10-19T08:14:30;8.50;;;5.07;;
38779;SDS011;29273;49.962;9.768;2022-10-19T08:16:55;8.25;;;5.57;;
38779;SDS011;29273;49.962;9.768;2022-10-19T08:19:21;6.28;;;4.55;;
38779;SDS011;29273;49.962;9.768;2022-10-19T08:21:48;7.07;;;5.20;;
38779;SDS011;29273;49.962;9.768;2022-10-19T08:24:14;7.53;;;4.85;;
38779;SDS011;29273;49.962;9.768;2022-10-19T08:26:41;8.13;;;4.85;;
38779;SDS011;29273;49.962;9.768;2022-10-19T08:29:09;5.63;;;4.35;;
38779;SDS011;29273;49.962;9.768;2022-10-19T08:31:36;6.82;;;4.57;;
38779;SDS011;29273;49.962;9.768;2022-10-19T08:34:02;6.18;;;4.30;;
38779;SDS011;29273;49.962;9.768;2022-10-19T08:36:28;5.50;;;4.80;;
38779;SDS011;29273;49.962;9.768;2022-10-19T08:38:57;6.75;;;4.60;;
38779;SDS011;29273;49.962;9.768;2022-10-19T08:41:29;6.15;;;4.25;;
38779;SDS011;29273;49.962;9.768;2022-10-19T08:44:19;4.78;;;3.83;;
38779;SDS011;29273;49.962;9.768;2022-10-19T08:47:09;4.85;;;3.63;;
38779;SDS011;29273;49.962;9.768;2022-10-19T08:49:38;5.45;;;4.07;;
38779;SDS011;29273;49.962;9.768;2022-10-19T08:52:13;5.07;;;4.18;;
38779;SDS011;29273;49.962;9.768;2022-10-19T08:54:50;4.82;;;3.78;;
38779;SDS011;29273;49.962;9.768;2022-10-19T08:57:22;5.22;;;3.97;;
38779;SDS011;29273;49.962;9.768;2022-10-19T09:02:56;4.88;;;3.75;;
38779;SDS011;29273;49.962;9.768;2022-10-19T09:05:31;5.25;;;3.85;;
38779;SDS011;29273;49.962;9.768;2022-10-19T09:08:06;5.35;;;4.00;;
38779;SDS011;29273;49.962;9.768;2022-10-19T09:10:34;4.68;;;4.05;;
38779;SDS011;29273;49.962;9.768;2022-10-19T09:13:16;7.35;;;4.25;;
38779;SDS011;29273;49.962;9.768;2022-10-19T09:15:51;6.22;;;3.80;;
38779;SDS011;29273;49.962;9.768;2022-10-19T09:20:45;4.20;;;3.42;;
38779;SDS011;29273;49.962;9.768;2022-10-19T09:25:41;6.00;;;3.58;;
38779;SDS011;29273;49.962;9.768;2022-10-19T09:31:11;5.55;;;3.70;;
38779;SDS011;29273;49.962;9.768;2022-10-19T09:33:40;5.15;;;3.15;;
38779;SDS011;29273;49.962;9.768;2022-10-19T09:36:07;4.68;;;3.50;;
38779;SDS011;29273;49.962;9.768;2022-10-19T09:38:34;4.25;;;3.45;;
38779;SDS011;29273;49.962;9.768;2022-10-19T09:41:19;5.20;;;3.63;;
38779;SDS011;29273;49.962;9.768;2022-10-19T09:43:48;4.47;;;3.45;;
38779;SDS011;29273;49.962;9.768;2022-10-19T09:52:04;4.07;;;2.92;;
38779;SDS011;29273;49.962;9.768;2022-10-19T09:54:34;4.13;;;3.10;;
38779;SDS011;29273;49.962;9.768;2022-10-19T09:57:02;5.28;;;3.58;;
38779;SDS011;29273;49.962;9.768;2022-10-19T09:59:30;3.80;;;3.00;;
38779;SDS011;29273;49.962;9.768;2022-10-19T10:02:02;5.18;;;3.10;;
38779;SDS011;29273;49.962;9.768;2022-10-19T10:04:30;4.65;;;3.40;;
38779;SDS011;29273;49.962;9.768;2022-10-19T10:06:55;4.78;;;2.80;;
38779;SDS011;29273;49.962;9.768;2022-10-19T10:09:23;4.38;;;3.33;;
38779;SDS011;29273;49.962;9.768;2022-10-19T10:11:50;4.10;;;3.15;;
38779;SDS011;29273;49.962;9.768;2022-10-19T10:14:19;5.72;;;3.30;;
38779;SDS011;29273;49.962;9.768;2022-10-19T10:16:47;6.43;;;3.15;;
38779;SDS011;29273;49.962;9.768;2022-10-19T10:19:18;4.05;;;3.13;;
38779;SDS011;29273;49.962;9.768;2022-10-19T10:21:48;5.70;;;3.85;;
38779;SDS011;29273;49.962;9.768;2022-10-19T10:24:16;4.23;;;2.87;;
38779;SDS011;29273;49.962;9.768;2022-10-19T10:31:45;3.58;;;2.67;;
38779;SDS011;29273;49.962;9.768;2022-10-19T10:34:30;4.20;;;2.97;;
38779;SDS011;29273;49.962;9.768;2022-10-19T10:36:58;6.38;;;3.28;;
38779;SDS011;29273;49.962;9.768;2022-10-19T10:39:25;3.90;;;2.75;;
38779;SDS011;29273;49.962;9.768;2022-10-19T10:41:52;4.68;;;2.85;;
38779;SDS011;29273;49.962;9.768;2022-10-19T10:44:21;3.65;;;2.88;;
38779;SDS011;29273;49.962;9.768;2022-10-19T10:46:54;3.33;;;2.55;;
38779;SDS011;29273;49.962;9.768;2022-10-19T10:49:23;3.90;;;2.85;;
38779;SDS011;29273;49.962;9.768;2022-10-19T10:52:11;4.70;;;2.88;;
38779;SDS011;29273;49.962;9.768;2022-10-19T10:54:38;4.40;;;3.20;;
38779;SDS011;29273;49.962;9.768;2022-10-19T10:59:52;4.03;;;2.60;;
38779;SDS011;29273;49.962;9.768;2022-10-19T11:05:09;3.83;;;2.60;;
38779;SDS011;29273;49.962;9.768;2022-10-19T11:07:55;3.10;;;2.40;;
38779;SDS011;29273;49.962;9.768;2022-10-19T11:10:29;5.15;;;2.85;;
38779;SDS011;29273;49.962;9.768;2022-10-19T11:15:43;4.55;;;2.25;;
38779;SDS011;29273;49.962;9.768;2022-10-19T11:18:21;4.97;;;2.65;;
38779;SDS011;29273;49.962;9.768;2022-10-19T11:21:03;3.63;;;2.67;;
38779;SDS011;29273;49.962;9.768;2022-10-19T11:26:18;3.75;;;2.95;;
38779;SDS011;29273;49.962;9.768;2022-10-19T11:32:00;4.80;;;3.00;;
38779;SDS011;29273;49.962;9.768;2022-10-19T11:37:27;4.03;;;2.70;;
38779;SDS011;29273;49.962;9.768;2022-10-19T11:40:44;4.53;;;2.80;;
38779;SDS011;29273;49.962;9.768;2022-10-19T11:42:59;4.45;;;2.78;;
38779;SDS011;29273;49.962;9.768;2022-10-19T11:51:18;5.22;;;2.85;;
38779;SDS011;29273;49.962;9.768;2022-10-19T11:53:54;4.85;;;2.92;;
38779;SDS011;29273;49.962;9.768;2022-10-19T11:56:46;5.13;;;3.58;;
38779;SDS011;29273;49.962;9.768;2022-10-19T12:04:56;3.80;;;3.10;;
38779;SDS011;29273;49.962;9.768;2022-10-19T12:07:31;3.90;;;3.08;;
38779;SDS011;29273;49.962;9.768;2022-10-19T12:10:23;4.13;;;3.13;;
38779;SDS011;29273;49.962;9.768;2022-10-19T12:12:57;3.97;;;3.20;;
38779;SDS011;29273;49.962;9.768;2022-10-19T12:15:29;5.63;;;3.50;;
38779;SDS011;29273;49.962;9.768;2022-10-19T12:20:40;4.40;;;2.80;;
38779;SDS011;29273;49.962;9.768;2022-10-19T12:23:16;3.83;;;3.00;;
38779;SDS011;29273;49.962;9.768;2022-10-19T12:25:53;3.08;;;2.63;;
38779;SDS011;29273;49.962;9.768;2022-10-19T12:28:24;4.22;;;3.13;;
38779;SDS011;29273;49.962;9.768;2022-10-19T12:30:53;7.72;;;3.10;;
38779;SDS011;29273;49.962;9.768;2022-10-19T12:33:25;3.47;;;2.88;;
38779;SDS011;29273;49.962;9.768;2022-10-19T12:41:19;4.70;;;3.65;;
38779;SDS011;29273;49.962;9.768;2022-10-19T12:44:00;7.05;;;3.25;;
38779;SDS011;29273;49.962;9.768;2022-10-19T12:51:55;3.35;;;3.05;;
38779;SDS011;29273;49.962;9.768;2022-10-19T12:54:23;4.78;;;3.30;;
38779;SDS011;29273;49.962;9.768;2022-10-19T12:56:51;4.28;;;3.47;;
38779;SDS011;29273;49.962;9.768;2022-10-19T12:59:40;4.35;;;3.50;;
38779;SDS011;29273;49.962;9.768;2022-10-19T13:02:04;6.38;;;3.58;;
38779;SDS011;29273;49.962;9.768;2022-10-19T13:04:52;3.22;;;2.90;;
38779;SDS011;29273;49.962;9.768;2022-10-19T13:07:18;4.25;;;3.17;;
38779;SDS011;29273;49.962;9.768;2022-10-19T13:09:45;3.20;;;2.90;;
38779;SDS011;29273;49.962;9.768;2022-10-19T13:22:38;3.20;;;2.70;;
38779;SDS011;29273;49.962;9.768;2022-10-19T13:27:46;4.35;;;3.08;;
38779;SDS011;29273;49.962;9.768;2022-10-19T13:38:31;3.10;;;2.80;;
38779;SDS011;29273;49.962;9.768;2022-10-19T14:11:44;4.15;;;2.42;;
38779;SDS011;29273;49.962;9.768;2022-10-19T14:14:14;2.95;;;2.47;;
38779;SDS011;29273;49.962;9.768;2022-10-19T14:19:22;3.60;;;2.70;;
38779;SDS011;29273;49.962;9.768;2022-10-19T14:21:51;3.58;;;2.70;;
38779;SDS011;29273;49.962;9.768;2022-10-19T14:24:29;3.33;;;2.58;;
38779;SDS011;29273;49.962;9.768;2022-10-19T14:27:01;3.63;;;2.78;;
38779;SDS011;29273;49.962;9.768;2022-10-19T14:29:29;3.00;;;2.40;;
38779;SDS011;29273;49.962;9.768;2022-10-19T14:31:58;3.38;;;2.40;;
38779;SDS011;29273;49.962;9.768;2022-10-19T14:34:24;2.58;;;2.38;;
38779;SDS011;29273;49.962;9.768;2022-10-19T14:36:49;3.72;;;2.50;;
38779;SDS011;29273;49.962;9.768;2022-10-19T14:39:28;2.75;;;2.55;;
38779;SDS011;29273;49.962;9.768;2022-10-19T14:41:54;2.47;;;2.28;;
38779;SDS011;29273;49.962;9.768;2022-10-19T14:44:31;2.90;;;2.60;;
38779;SDS011;29273;49.962;9.768;2022-10-19T14:47:08;2.78;;;2.42;;
38779;SDS011;29273;49.962;9.768;2022-10-19T14:49:41;3.25;;;2.80;;
38779;SDS011;29273;49.962;9.768;2022-10-19T14:52:07;2.67;;;2.38;;
38779;SDS011;29273;49.962;9.768;2022-10-19T14:54:35;2.80;;;2.50;;
38779;SDS011;29273;49.962;9.768;2022-10-19T14:59:43;3.13;;;2.58;;
38779;SDS011;29273;49.962;9.768;2022-10-19T15:04:55;3.17;;;2.70;;
38779;SDS011;29273;49.962;9.768;2022-10-19T15:07:26;2.45;;;2.25;;
38779;SDS011;29273;49.962;9.768;2022-10-19T15:09:59;2.60;;;2.40;;
38779;SDS011;29273;49.962;9.768;2022-10-19T15:12:33;2.63;;;2.38;;
38779;SDS011;29273;49.962;9.768;2022-10-19T15:15:09;2.75;;;2.38;;
38779;SDS011;29273;49.962;9.768;2022-10-19T15:17:47;2.60;;;2.25;;
38779;SDS011;29273;49.962;9.768;2022-10-19T15:20:22;2.40;;;2.17;;
38779;SDS011;29273;49.962;9.768;2022-10-19T15:22:47;3.30;;;2.65;;
38779;SDS011;29273;49.962;9.768;2022-10-19T15:27:40;3.03;;;2.47;;
38779;SDS011;29273;49.962;9.768;2022-10-19T15:32:41;2.97;;;2.17;;
38779;SDS011;29273;49.962;9.768;2022-10-19T15:35:07;3.75;;;2.40;;
38779;SDS011;29273;49.962;9.768;2022-10-19T15:37:42;2.92;;;2.30;;
38779;SDS011;29273;49.962;9.768;2022-10-19T15:40:19;3.30;;;2.70;;
38779;SDS011;29273;49.962;9.768;2022-10-19T15:42:49;2.88;;;2.50;;
38779;SDS011;29273;49.962;9.768;2022-10-19T15:45:31;2.65;;;2.38;;
38779;SDS011;29273;49.962;9.768;2022-10-19T15:50:41;3.25;;;2.03;;
38779;SDS011;29273;49.962;9.768;2022-10-19T15:53:08;2.97;;;2.53;;
38779;SDS011;29273;49.962;9.768;2022-10-19T15:55:34;2.97;;;2.53;;
38779;SDS011;29273;49.962;9.768;2022-10-19T15:58:00;3.00;;;2.53;;
38779;SDS011;29273;49.962;9.768;2022-10-19T16:00:25;2.60;;;2.22;;
38779;SDS011;29273;49.962;9.768;2022-10-19T16:02:53;3.05;;;2.50;;
38779;SDS011;29273;49.962;9.768;2022-10-19T16:05:18;2.90;;;2.60;;
38779;SDS011;29273;49.962;9.768;2022-10-19T16:07:44;2.83;;;2.53;;
38779;SDS011;29273;49.962;9.768;2022-10-19T16:13:04;3.15;;;2.38;;
38779;SDS011;29273;49.962;9.768;2022-10-19T16:15:30;2.58;;;2.03;;
38779;SDS011;29273;49.962;9.768;2022-10-19T16:17:59;2.80;;;2.40;;
38779;SDS011;29273;49.962;9.768;2022-10-19T16:20:25;3.15;;;2.80;;
38779;SDS011;29273;49.962;9.768;2022-10-19T16:22:53;2.92;;;2.60;;
38779;SDS011;29273;49.962;9.768;2022-10-19T16:25:18;3.33;;;2.60;;
38779;SDS011;29273;49.962;9.768;2022-10-19T16:27:44;3.45;;;2.70;;
38779;SDS011;29273;49.962;9.768;2022-10-19T16:30:10;3.00;;;2.70;;
38779;SDS011;29273;49.962;9.768;2022-10-19T16:32:36;3.40;;;2.58;;
38779;SDS011;29273;49.962;9.768;2022-10-19T16:35:04;3.45;;;2.85;;
38779;SDS011;29273;49.962;9.768;2022-10-19T16:37:32;3.10;;;2.70;;
38779;SDS011;29273;49.962;9.768;2022-10-19T16:39:58;3.08;;;2.67;;
38779;SDS011;29273;49.962;9.768;2022-10-19T16:42:23;3.40;;;2.92;;
38779;SDS011;29273;49.962;9.768;2022-10-19T16:44:50;3.50;;;3.13;;
38779;SDS011;29273;49.962;9.768;2022-10-19T16:47:15;3.83;;;3.20;;
38779;SDS011;29273;49.962;9.768;2022-10-19T16:49:43;3.10;;;2.80;;
38779;SDS011;29273;49.962;9.768;2022-10-19T16:52:11;3.38;;;3.08;;
38779;SDS011;29273;49.962;9.768;2022-10-19T16:54:38;3.85;;;3.05;;
38779;SDS011;29273;49.962;9.768;2022-10-19T16:57:04;3.78;;;3.35;;
38779;SDS011;29273;49.962;9.768;2022-10-19T16:59:29;4.35;;;3.28;;
38779;SDS011;29273;49.962;9.768;2022-10-19T17:01:55;4.72;;;3.78;;
38779;SDS011;29273;49.962;9.768;2022-10-19T17:04:20;5.88;;;4.68;;
38779;SDS011;29273;49.962;9.768;2022-10-19T17:06:46;6.88;;;5.15;;
38779;SDS011;29273;49.962;9.768;2022-10-19T17:09:11;6.18;;;4.82;;
38779;SDS011;29273;49.962;9.768;2022-10-19T17:11:37;6.35;;;4.72;;
38779;SDS011;29273;49.962;9.768;2022-10-19T17:14:04;7.20;;;5.00;;
38779;SDS011;29273;49.962;9.768;2022-10-19T17:16:33;6.57;;;4.90;;
38779;SDS011;29273;49.962;9.768;2022-10-19T17:19:00;5.40;;;4.47;;
38779;SDS011;29273;49.962;9.768;2022-10-19T17:21:27;6.88;;;4.97;;
38779;SDS011;29273;49.962;9.768;2022-10-19T17:23:59;6.15;;;4.55;;
38779;SDS011;29273;49.962;9.768;2022-10-19T17:26:27;5.30;;;4.38;;
38779;SDS011;29273;49.962;9.768;2022-10-19T17:28:54;5.45;;;4.70;;
38779;SDS011;29273;49.962;9.768;2022-10-19T17:31:21;4.68;;;4.13;;
38779;SDS011;29273;49.962;9.768;2022-10-19T17:33:46;4.82;;;3.90;;
38779;SDS011;29273;49.962;9.768;2022-10-19T17:36:14;4.47;;;3.90;;